METAR Data
IDs: Format: Raw Decoded Include TAF

Data at: 1339 UTC 14 Dec 2019

PASA 141304Z AUTO 09013KT 10SM FEW012 SCT018 M02/M03 A2936 RMK AO2 FZRANO
PASA 141256Z AUTO 09014KT 10SM SCT014 BKN018 M02/M03 A2936 RMK AO2 SNB18E30 SLP942 P0000 T10221033 FZRANO
PASA 141254Z AUTO 08013KT 10SM SCT014 M02/M03 A2936 RMK AO2 SNB18E30 P0000 FZRANO
PASA 141213Z AUTO 10014KT 10SM BKN014 M01/M03 A2935 RMK AO2 FZRANO
PASA 141203Z AUTO 11016KT 10SM BKN016 M02/M03 A2934 RMK AO2 FZRANO
PASA 141156Z AUTO 10012KT 10SM SCT016 M03/M04 A2934 RMK AO2 SLP938 60000 7//// T10281039 11011 21033 52011 FZRANO
PASA 141056Z AUTO 10013KT 10SM FEW014 M03/M04 A2934 RMK AO2 SLPNO T10281039 FZRANO
PASA 140956Z AUTO 12015KT 10SM CLR M02/M03 A2932 RMK AO2 UPB32E50SNB23E32 SLPNO P0000 T10221033 FZRANO
PASA 140908Z AUTO 10014KT 10SM FEW009 SCT039 OVC110 M01/M02 A2931 RMK AO2 FZRANO
PASA 140856Z AUTO 09013KT 10SM FEW030 SCT039 OVC110 M01/M02 A2931 RMK AO2 UPE0758B20E32SNB11E20 SLPNO P0000 60000 T10111017 410111028 53004 FZRANO
PASA 140756Z AUTO 08012KT 10SM UP FEW028 BKN039 OVC070 M02/M03 A2930 RMK AO2 UPB45SNB20E45 SLPNO P0000 T10171028 FZRANO
PASA 140656Z AUTO 11014KT 10SM SCT038 BKN080 M02/M03 A2930 RMK AO2 UPE00SNB00E29 SLPNO P0000 T10221028 FZRANO
PASA 140638Z AUTO 09008KT 10SM FEW023 BKN038 M02/M02 A2930 RMK AO2 UPE00SNB00E29 P0000 FZRANO
PASA 140617Z AUTO 10011KT 4SM -SN BR SCT003 BKN018 OVC032 M01/M02 A2930 RMK AO2 UPE00SNB00 P0000 FZRANO
PASA 140556Z AUTO 07009KT 5SM UP BR BKN003 OVC007 M01/M02 A2930 RMK AO2 UPB46SNB37E46 SLPNO P0000 60002 T10111017 11011 21028 53007 FZRANO
PASA 140537Z AUTO 08009KT 4SM -SN BR BKN003 OVC042 M02/M02 A2930 RMK AO2 SNB37 P0000 FZRANO
PASA 140456Z AUTO 08008KT 9SM FEW006 SCT032 OVC040 M02/M03 A2929 RMK AO2 UPE04B31E49SNB22E31 SLPNO P0000 T10221033 FZRANO
PASA 140356Z AUTO 11003KT 10SM UP SCT007 BKN020 OVC024 M03/M03 A2929 RMK AO2 UPE01B50SNB01E50 SLPNO P0000 T10281033 FZRANO
PASA 140328Z AUTO 11005KT 5SM -SN BR BKN007 BKN012 OVC029 M03/M03 A2928 RMK AO2 UPE01SNB01 CIG 005V010 P0000 FZRANO
PASA 140256Z AUTO 10005KT 10SM UP BKN019 OVC030 M03/M03 A2928 RMK AO2 UPB48SNE48 SLPNO P0000 60002 T10281033 52001 FZRANO
PASA 140228Z AUTO 10005KT 3SM -SN BR BKN021 OVC031 M02/M03 A2928 RMK AO2 P0000 FZRANO
PASA 140212Z AUTO 10005KT 1 3/4SM -SN BR OVC021 M02/M03 A2928 RMK AO2 P0000 FZRANO
PASA 140204Z AUTO 10005KT 3SM -SN BR OVC023 M02/M03 A2928 RMK AO2 P0000 FZRANO
PASA 140156Z AUTO 09004KT 1 1/2SM -SN BR FEW016 OVC023 M02/M03 A2928 RMK AO2 SLPNO P0001 T10221033 FZRANO
PASA 140149Z AUTO 10004KT 1 1/4SM -SN BR FEW009 SCT016 OVC025 M02/M03 A2928 RMK AO2 P0001 FZRANO
PASA 140139Z AUTO 10004KT 1SM -SN BR SCT007 BKN016 OVC025 M02/M03 A2928 RMK AO2 P0001 FZRANO
PASA 140132Z AUTO 11003KT 1 1/4SM -SN BR BKN007 OVC016 M02/M03 A2928 RMK AO2 P0001 FZRANO
PASA 140123Z AUTO 12003KT 1 1/4SM -SN BR BKN005 OVC011 M02/M03 A2928 RMK AO2 P0001 FZRANO
PASA 140056Z AUTO 00000KT 3/4SM -SN BR OVC005 M02/M03 A2928 RMK AO2 CIG 004V009 SLPNO P0001 T10221033 FZRANO
PASA 140051Z AUTO 00000KT 1SM -SN BR OVC005 M02/M03 A2928 RMK AO2 CIG 004V008 P0001 FZRANO
PASA 140044Z AUTO 00000KT 1 1/4SM -SN BR OVC005 M02/M03 A2928 RMK AO2 P0001 FZRANO
PASA 140037Z AUTO 00000KT 2SM -SN BR OVC005 M02/M03 A2928 RMK AO2 P0001 FZRANO
PASA 140028Z AUTO 00000KT 1 3/4SM -SN BR OVC005 M02/M03 A2928 RMK AO2 P0000 FZRANO
PASA 140017Z AUTO 00000KT 1 1/4SM -SN BR BKN007 BKN013 OVC020 M02/M03 A2928 RMK AO2 P0000 FZRANO
PASA 140006Z AUTO 00000KT 1 1/4SM -SN BR SCT007 BKN015 OVC022 M02/M03 A2928 RMK AO2 P0000 FZRANO
PASA 140000Z AUTO 00000KT 1SM -SN BR FEW007 BKN013 OVC020 M02/M03 A2928 RMK AO2 P0000 FZRANO
PASA 132356Z AUTO 10003KT 3/4SM -SN BR FEW009 OVC015 M02/M03 A2928 RMK AO2 P0000 FZRANO
PASA 132353Z AUTO 11003KT 3/4SM -SN BR OVC012 M02/M03 A2928 RMK AO2 SNB10 SLPNO 6//// T10221033 FZRANO
PASA 132352Z AUTO 11003KT 3/4SM -SN BR OVC012 M02/M03 A2928 RMK AO2 SNB10 FZRANO
PASA 132344Z AUTO 00000KT 3/4SM -SN BR SCT010 OVC015 M02/M03 A2928 RMK AO2 SNB10 FZRANO
PASA 132338Z AUTO 00000KT 1SM -SN BR OVC010 M02/M03 A2928 RMK AO2 SNB10 FZRANO
PASA 132330Z AUTO 00000KT 1 3/4SM -SN BR M02/M03 A2929 RMK AO2 VIS 1V5 SNB10 FZRANO